Wetterdaten: Woche 30.04.12 - 06.05.12 (KW18)
Datum Zeit Temp. Innen Temp. Aussen UV X Diff Temp. Feuchte Inne Feuchte Auss Sonnenschein Luftdruck Regen ab 0,1 Wind Sonnenschein T Regendauer Windben
30.04.2012 00:00 20,1 C 13,8 C 0,0 UV-I 0,0 C 60 % 85 % 0 % 1012,0 hPa 0,0 l/m 0,0 km/h (0 Bft) 0,00 h 0,00 h 0,0 km/h (0 Bft)
30.04.2012 01:00 19,9 C 13,2 C 0,0 UV-I 0,0 C 60 % 87 % 0 % 1013,0 hPa 0,0 l/m 0,0 km/h (0 Bft) 0,00 h 0,00 h 0,0 km/h (0 Bft)
30.04.2012 02:00 19,7 C 12,4 C 0,0 UV-I 0,0 C 59 % 88 % 0 % 1013,3 hPa 0,0 l/m 0,0 km/h (0 Bft) 0,00 h 0,00 h 0,0 km/h (0 Bft)
30.04.2012 03:00 19,4 C 11,5 C 0,0 UV-I 0,0 C 59 % 88 % 0 % 1013,6 hPa 0,0 l/m 0,0 km/h (0 Bft) 0,00 h 0,00 h 0,0 km/h (0 Bft)
30.04.2012 04:00 19,1 C 10,2 C 0,0 UV-I 0,0 C 59 % 90 % 0 % 1014,3 hPa 0,0 l/m 0,0 km/h (0 Bft) 0,00 h 0,00 h 0,0 km/h (0 Bft)
30.04.2012 05:00 18,8 C 9,2 C 0,0 UV-I 0,0 C 57 % 91 % 0 % 1014,7 hPa 0,0 l/m 0,0 km/h (0 Bft) 0,00 h 0,00 h 0,0 km/h (0 Bft)
30.04.2012 06:00 18,6 C 8,7 C 0,0 UV-I 0,0 C 57 % 93 % 0 % 1015,3 hPa 0,0 l/m 0,0 km/h (0 Bft) 0,00 h 0,00 h 0,0 km/h (0 Bft)
30.04.2012 07:00 18,6 C 9,7 C 0,0 UV-I 0,1 C 59 % 94 % 4 % 1016,1 hPa 0,0 l/m 0,0 km/h (0 Bft) 0,00 h 0,00 h 0,0 km/h (0 Bft)
30.04.2012 08:00 18,9 C 11,9 C 0,1 UV-I 1,9 C 60 % 93 % 53 % 1015,8 hPa 0,0 l/m 0,0 km/h (0 Bft) 0,10 h 0,00 h 0,3 km/h (0 Bft)
30.04.2012 09:00 19,1 C 14,6 C 1,5 UV-I 6,2 C 60 % 86 % 96 % 1016,3 hPa 0,0 l/m 0,1 km/h (0 Bft) 0,87 h 0,00 h 0,9 km/h (0 Bft)
30.04.2012 10:00 19,3 C 18,1 C 4,5 UV-I 9,7 C 59 % 65 % 100 % 1016,8 hPa 0,0 l/m 2,1 km/h (1 Bft) 1,00 h 0,00 h 5,9 km/h (2 Bft)
30.04.2012 11:00 19,6 C 20,0 C 4,2 UV-I 7,0 C 58 % 58 % 100 % 1016,6 hPa 0,0 l/m 4,3 km/h (1 Bft) 1,00 h 0,00 h 8,4 km/h (2 Bft)
30.04.2012 12:00 20,3 C 21,4 C 2,9 UV-I 7,0 C 57 % 52 % 100 % 1016,3 hPa 0,0 l/m 4,9 km/h (1 Bft) 1,00 h 0,00 h 9,5 km/h (2 Bft)
30.04.2012 13:00 21,0 C 22,2 C 2,4 UV-I 5,5 C 55 % 48 % 100 % 1015,8 hPa 0,0 l/m 5,7 km/h (1 Bft) 1,00 h 0,00 h 9,2 km/h (2 Bft)
30.04.2012 14:00 21,9 C 22,8 C 2,5 UV-I 4,9 C 52 % 43 % 100 % 1014,9 hPa 0,0 l/m 5,1 km/h (1 Bft) 1,00 h 0,00 h 8,6 km/h (2 Bft)
30.04.2012 15:00 22,4 C 22,9 C 1,6 UV-I 3,0 C 49 % 44 % 84 % 1014,6 hPa 0,0 l/m 5,8 km/h (2 Bft) 0,63 h 0,00 h 9,5 km/h (2 Bft)
30.04.2012 16:00 22,2 C 22,4 C 1,1 UV-I 1,7 C 48 % 43 % 50 % 1014,2 hPa 0,0 l/m 6,1 km/h (2 Bft) 0,00 h 0,00 h 10,2 km/h (2 Bft)
30.04.2012 17:00 22,2 C 22,4 C 0,9 UV-I 1,4 C 48 % 45 % 40 % 1013,6 hPa 0,0 l/m 10,5 km/h (2 Bft) 0,00 h 0,00 h 16,9 km/h (3 Bft)
30.04.2012 18:00 22,2 C 22,4 C 0,5 UV-I 0,8 C 48 % 47 % 23 % 1013,4 hPa 0,0 l/m 9,0 km/h (2 Bft) 0,00 h 0,00 h 13,5 km/h (3 Bft)
30.04.2012 19:00 22,0 C 21,8 C 0,1 UV-I 0,0 C 49 % 54 % 0 % 1012,8 hPa 0,0 l/m 8,6 km/h (2 Bft) 0,00 h 0,00 h 13,7 km/h (3 Bft)
30.04.2012 20:00 21,7 C 21,1 C 0,0 UV-I 0,0 C 51 % 57 % 0 % 1013,1 hPa 0,0 l/m 8,5 km/h (2 Bft) 0,00 h 0,00 h 12,2 km/h (2 Bft)
30.04.2012 21:00 21,4 C 20,4 C 0,0 UV-I 0,0 C 52 % 59 % 0 % 1012,9 hPa 0,0 l/m 8,5 km/h (2 Bft) 0,00 h 0,00 h 12,6 km/h (3 Bft)
30.04.2012 22:00 21,2 C 19,8 C 0,0 UV-I 0,0 C 53 % 61 % 0 % 1012,7 hPa 0,0 l/m 8,5 km/h (2 Bft) 0,00 h 0,00 h 12,5 km/h (3 Bft)
30.04.2012 23:00 21,1 C 19,2 C 0,0 UV-I 0,0 C 53 % 61 % 0 % 1012,0 hPa 0,0 l/m 7,7 km/h (2 Bft) 0,00 h 0,00 h 12,4 km/h (3 Bft)
01.05.2012 00:00 21,0 C 18,7 C 0,0 UV-I 0,0 C 54 % 60 % 0 % 1012,0 hPa 0,0 l/m 6,2 km/h (2 Bft) 0,00 h 0,00 h 9,9 km/h (2 Bft)
01.05.2012 01:00 20,9 C 17,9 C 0,0 UV-I 0,0 C 53 % 61 % 0 % 1012,4 hPa 0,0 l/m 2,5 km/h (1 Bft) 0,00 h 0,00 h 6,3 km/h (2 Bft)
01.05.2012 02:00 20,9 C 17,2 C 0,0 UV-I 0,0 C 53 % 60 % 0 % 1011,7 hPa 0,0 l/m 4,0 km/h (1 Bft) 0,00 h 0,00 h 6,8 km/h (2 Bft)
01.05.2012 03:00 20,8 C 16,7 C 0,0 UV-I 0,0 C 53 % 60 % 0 % 1011,7 hPa 0,0 l/m 1,7 km/h (1 Bft) 0,00 h 0,00 h 3,9 km/h (1 Bft)
01.05.2012 04:00 20,8 C 16,2 C 0,0 UV-I 0,0 C 53 % 62 % 0 % 1012,0 hPa 0,0 l/m 3,4 km/h (1 Bft) 0,00 h 0,00 h 6,7 km/h (2 Bft)
01.05.2012 05:00 20,7 C 15,1 C 0,0 UV-I 0,0 C 53 % 70 % 0 % 1012,4 hPa 1,9 l/m 0,7 km/h (0 Bft) 0,00 h 0,73 h 2,0 km/h (1 Bft)
01.05.2012 06:00 20,6 C 13,0 C 0,0 UV-I 0,0 C 55 % 84 % 0 % 1012,6 hPa 3,8 l/m 0,6 km/h (0 Bft) 0,00 h 0,83 h 1,3 km/h (1 Bft)
01.05.2012 07:00 20,4 C 12,4 C 0,0 UV-I 0,0 C 56 % 90 % 0 % 1013,6 hPa 1,4 l/m 1,0 km/h (0 Bft) 0,00 h 0,83 h 2,9 km/h (1 Bft)
01.05.2012 08:00 20,4 C 13,0 C 0,0 UV-I 0,1 C 57 % 92 % 3 % 1014,0 hPa 0,0 l/m 0,0 km/h (0 Bft) 0,00 h 0,00 h 0,0 km/h (0 Bft)
01.05.2012 09:00 20,4 C 13,4 C 0,0 UV-I 0,2 C 58 % 92 % 5 % 1014,4 hPa 0,0 l/m 0,1 km/h (0 Bft) 0,00 h 0,00 h 0,7 km/h (0 Bft)
01.05.2012 10:00 20,6 C 15,2 C 1,3 UV-I 3,7 C 59 % 92 % 86 % 1015,2 hPa 0,0 l/m 1,6 km/h (1 Bft) 0,73 h 0,00 h 3,4 km/h (1 Bft)
01.05.2012 11:00 20,8 C 16,2 C 0,9 UV-I 2,5 C 60 % 88 % 71 % 1016,1 hPa 0,0 l/m 3,6 km/h (1 Bft) 0,37 h 0,00 h 7,8 km/h (2 Bft)
01.05.2012 12:00 21,1 C 17,5 C 1,5 UV-I 3,6 C 59 % 83 % 91 % 1016,4 hPa 0,0 l/m 3,0 km/h (1 Bft) 0,90 h 0,00 h 7,3 km/h (2 Bft)
01.05.2012 13:00 21,7 C 19,4 C 2,9 UV-I 7,0 C 58 % 74 % 100 % 1016,3 hPa 0,0 l/m 4,0 km/h (1 Bft) 1,00 h 0,00 h 8,3 km/h (2 Bft)
01.05.2012 14:00 22,8 C 21,2 C 2,9 UV-I 7,0 C 55 % 66 % 100 % 1016,0 hPa 0,0 l/m 3,8 km/h (1 Bft) 1,00 h 0,00 h 7,8 km/h (2 Bft)
01.05.2012 15:00 24,0 C 22,3 C 2,9 UV-I 6,1 C 51 % 59 % 100 % 1016,0 hPa 0,0 l/m 4,1 km/h (1 Bft) 1,00 h 0,00 h 8,0 km/h (2 Bft)
01.05.2012 16:00 24,2 C 21,7 C 1,9 UV-I 3,4 C 50 % 61 % 92 % 1016,0 hPa 0,0 l/m 6,1 km/h (2 Bft) 0,80 h 0,00 h 9,7 km/h (2 Bft)
01.05.2012 17:00 24,0 C 21,0 C 1,4 UV-I 2,6 C 51 % 65 % 72 % 1016,0 hPa 0,0 l/m 7,2 km/h (2 Bft) 0,43 h 0,00 h 10,8 km/h (2 Bft)
01.05.2012 18:00 23,5 C 20,4 C 0,3 UV-I 0,8 C 52 % 70 % 22 % 1016,5 hPa 0,0 l/m 8,4 km/h (2 Bft) 0,00 h 0,00 h 11,8 km/h (2 Bft)
01.05.2012 19:00 23,0 C 19,7 C 0,0 UV-I 0,0 C 53 % 73 % 0 % 1016,8 hPa 0,0 l/m 3,9 km/h (1 Bft) 0,00 h 0,00 h 6,0 km/h (2 Bft)
01.05.2012 20:00 22,4 C 18,9 C 0,0 UV-I 0,0 C 55 % 77 % 0 % 1017,2 hPa 0,0 l/m 2,8 km/h (1 Bft) 0,00 h 0,00 h 4,5 km/h (1 Bft)
01.05.2012 21:00 22,1 C 17,9 C 0,0 UV-I 0,0 C 56 % 79 % 0 % 1017,6 hPa 0,0 l/m 4,7 km/h (1 Bft) 0,00 h 0,00 h 9,6 km/h (2 Bft)
01.05.2012 22:00 21,8 C 16,4 C 0,0 UV-I 0,0 C 58 % 82 % 0 % 1018,3 hPa 0,0 l/m 0,2 km/h (0 Bft) 0,00 h 0,00 h 0,3 km/h (0 Bft)
01.05.2012 23:00 21,6 C 15,7 C 0,0 UV-I 0,0 C 58 % 86 % 0 % 1018,6 hPa 0,0 l/m 3,4 km/h (1 Bft) 0,00 h 0,00 h 6,4 km/h (2 Bft)
02.05.2012 00:00 21,5 C 15,4 C 0,0 UV-I 0,0 C 59 % 88 % 0 % 1018,5 hPa 0,0 l/m 2,6 km/h (1 Bft) 0,00 h 0,00 h 6,8 km/h (2 Bft)
02.05.2012 01:00 21,3 C 14,9 C 0,0 UV-I 0,0 C 59 % 88 % 0 % 1018,4 hPa 0,0 l/m 2,7 km/h (1 Bft) 0,00 h 0,00 h 5,7 km/h (1 Bft)
02.05.2012 02:00 21,2 C 14,5 C 0,0 UV-I 0,0 C 59 % 87 % 0 % 1018,4 hPa 0,0 l/m 5,2 km/h (1 Bft) 0,00 h 0,00 h 9,8 km/h (2 Bft)
02.05.2012 03:00 21,2 C 14,3 C 0,0 UV-I 0,0 C 59 % 87 % 0 % 1018,0 hPa 0,0 l/m 5,9 km/h (2 Bft) 0,00 h 0,00 h 10,5 km/h (2 Bft)
02.05.2012 04:00 21,0 C 14,0 C 0,0 UV-I 0,0 C 59 % 89 % 0 % 1017,8 hPa 0,0 l/m 2,4 km/h (1 Bft) 0,00 h 0,00 h 5,1 km/h (1 Bft)
02.05.2012 05:00 20,9 C 13,4 C 0,0 UV-I 0,0 C 60 % 90 % 0 % 1017,1 hPa 0,0 l/m 0,9 km/h (0 Bft) 0,00 h 0,00 h 2,2 km/h (1 Bft)
02.05.2012 06:00 20,7 C 13,0 C 0,0 UV-I 0,0 C 60 % 91 % 0 % 1016,8 hPa 0,0 l/m 2,5 km/h (1 Bft) 0,00 h 0,00 h 5,4 km/h (1 Bft)
02.05.2012 07:00 20,6 C 13,0 C 0,0 UV-I 0,0 C 60 % 92 % 0 % 1016,2 hPa 0,0 l/m 6,3 km/h (2 Bft) 0,00 h 0,00 h 10,8 km/h (2 Bft)
02.05.2012 08:00 20,7 C 13,4 C 0,2 UV-I 0,7 C 61 % 93 % 20 % 1015,6 hPa 0,0 l/m 8,6 km/h (2 Bft) 0,00 h 0,00 h 14,0 km/h (3 Bft)
02.05.2012 09:00 20,9 C 13,9 C 0,4 UV-I 1,2 C 60 % 92 % 34 % 1015,2 hPa 0,1 l/m 9,4 km/h (2 Bft) 0,00 h 0,00 h 13,6 km/h (3 Bft)
02.05.2012 10:00 21,1 C 14,4 C 0,6 UV-I 1,5 C 59 % 90 % 42 % 1014,8 hPa 0,0 l/m 14,1 km/h (3 Bft) 0,10 h 0,00 h 21,5 km/h (4 Bft)
02.05.2012 11:00 21,2 C 14,8 C 0,8 UV-I 2,0 C 59 % 88 % 53 % 1014,3 hPa 0,0 l/m 11,5 km/h (2 Bft) 0,17 h 0,00 h 16,9 km/h (3 Bft)
02.05.2012 12:00 21,2 C 14,6 C 0,1 UV-I 0,3 C 59 % 89 % 9 % 1013,8 hPa 1,1 l/m 6,7 km/h (2 Bft) 0,00 h 0,77 h 9,7 km/h (2 Bft)
02.05.2012 13:00 21,0 C 14,1 C 0,0 UV-I 0,0 C 59 % 92 % 0 % 1013,9 hPa 2,4 l/m 5,1 km/h (1 Bft) 0,00 h 0,90 h 8,2 km/h (2 Bft)
02.05.2012 14:00 20,9 C 14,4 C 0,6 UV-I 0,6 C 61 % 95 % 16 % 1012,4 hPa 0,5 l/m 10,4 km/h (2 Bft) 0,03 h 0,07 h 15,0 km/h (3 Bft)
02.05.2012 15:00 22,2 C 17,0 C 2,4 UV-I 5,8 C 60 % 93 % 100 % 1011,7 hPa 0,0 l/m 4,0 km/h (1 Bft) 1,00 h 0,00 h 9,0 km/h (2 Bft)
02.05.2012 16:00 23,3 C 19,3 C 1,8 UV-I 5,1 C 57 % 87 % 97 % 1011,4 hPa 0,1 l/m 3,5 km/h (1 Bft) 0,90 h 0,00 h 7,2 km/h (2 Bft)
02.05.2012 17:00 23,2 C 18,9 C 0,2 UV-I 1,2 C 57 % 85 % 35 % 1011,6 hPa 0,0 l/m 2,7 km/h (1 Bft) 0,00 h 0,00 h 5,9 km/h (2 Bft)
02.05.2012 18:00 22,3 C 16,6 C 0,0 UV-I 0,0 C 59 % 89 % 0 % 1011,7 hPa 0,0 l/m 3,7 km/h (1 Bft) 0,00 h 0,00 h 7,1 km/h (2 Bft)
02.05.2012 19:00 21,2 C 15,3 C 0,0 UV-I 0,0 C 62 % 91 % 0 % 1011,9 hPa 0,1 l/m 2,7 km/h (1 Bft) 0,00 h 0,13 h 5,8 km/h (2 Bft)
02.05.2012 20:00 20,7 C 15,0 C 0,0 UV-I 0,0 C 64 % 93 % 0 % 1012,8 hPa 2,5 l/m 0,7 km/h (0 Bft) 0,00 h 0,60 h 2,7 km/h (1 Bft)
02.05.2012 21:00 20,5 C 14,4 C 0,0 UV-I 0,0 C 65 % 94 % 0 % 1011,8 hPa 0,1 l/m 0,6 km/h (0 Bft) 0,00 h 0,03 h 1,6 km/h (1 Bft)
02.05.2012 22:00 20,3 C 14,2 C 0,0 UV-I 0,0 C 66 % 95 % 0 % 1012,2 hPa 0,1 l/m 0,4 km/h (0 Bft) 0,00 h 0,00 h 0,9 km/h (0 Bft)
02.05.2012 23:00 20,1 C 14,0 C 0,0 UV-I 0,0 C 66 % 96 % 0 % 1012,5 hPa 0,0 l/m 1,0 km/h (0 Bft) 0,00 h 0,00 h 3,1 km/h (1 Bft)
03.05.2012 00:00 19,9 C 13,7 C 0,0 UV-I 0,0 C 66 % 95 % 0 % 1012,8 hPa 0,0 l/m 1,3 km/h (1 Bft) 0,00 h 0,00 h 2,9 km/h (1 Bft)
03.05.2012 01:00 19,8 C 13,3 C 0,0 UV-I 0,0 C 65 % 95 % 0 % 1012,5 hPa 0,0 l/m 0,2 km/h (0 Bft) 0,00 h 0,00 h 1,0 km/h (0 Bft)
03.05.2012 02:00 19,7 C 13,1 C 0,0 UV-I 0,0 C 65 % 96 % 0 % 1012,3 hPa 0,0 l/m 0,3 km/h (0 Bft) 0,00 h 0,00 h 1,5 km/h (1 Bft)
03.05.2012 03:00 19,7 C 12,6 C 0,0 UV-I 0,0 C 64 % 96 % 0 % 1012,1 hPa 0,0 l/m 0,0 km/h (0 Bft) 0,00 h 0,00 h 0,0 km/h (0 Bft)
03.05.2012 04:00 19,6 C 12,0 C 0,0 UV-I 0,0 C 64 % 96 % 0 % 1011,8 hPa 0,0 l/m 0,0 km/h (0 Bft) 0,00 h 0,00 h 0,0 km/h (0 Bft)
03.05.2012 05:00 19,5 C 12,1 C 0,0 UV-I 0,0 C 64 % 96 % 0 % 1011,5 hPa 0,0 l/m 0,0 km/h (0 Bft) 0,00 h 0,00 h 0,0 km/h (0 Bft)
03.05.2012 06:00 19,4 C 12,0 C 0,0 UV-I 0,0 C 64 % 96 % 0 % 1011,3 hPa 0,0 l/m 0,0 km/h (0 Bft) 0,00 h 0,00 h 0,3 km/h (0 Bft)
03.05.2012 07:00 19,4 C 11,9 C 0,0 UV-I 0,4 C 64 % 96 % 12 % 1011,7 hPa 0,0 l/m 0,1 km/h (0 Bft) 0,00 h 0,00 h 0,3 km/h (0 Bft)
03.05.2012 08:00 19,6 C 12,2 C 0,2 UV-I 1,8 C 63 % 96 % 52 % 1011,7 hPa 0,0 l/m 0,2 km/h (0 Bft) 0,00 h 0,00 h 0,5 km/h (0 Bft)
03.05.2012 09:00 19,8 C 13,2 C 0,6 UV-I 3,7 C 62 % 94 % 90 % 1011,7 hPa 0,0 l/m 0,6 km/h (0 Bft) 0,57 h 0,00 h 2,7 km/h (1 Bft)
03.05.2012 10:00 20,0 C 13,4 C 0,6 UV-I 1,7 C 60 % 90 % 48 % 1012,0 hPa 0,0 l/m 2,9 km/h (1 Bft) 0,10 h 0,00 h 5,5 km/h (1 Bft)
03.05.2012 11:00 20,2 C 13,9 C 1,0 UV-I 2,8 C 59 % 87 % 76 % 1011,9 hPa 0,0 l/m 4,7 km/h (1 Bft) 0,43 h 0,00 h 10,1 km/h (2 Bft)
03.05.2012 12:00 20,3 C 13,9 C 0,9 UV-I 2,3 C 58 % 85 % 66 % 1011,8 hPa 0,0 l/m 5,5 km/h (1 Bft) 0,20 h 0,00 h 11,6 km/h (2 Bft)
03.05.2012 13:00 20,5 C 14,3 C 1,1 UV-I 2,7 C 57 % 82 % 75 % 1011,3 hPa 0,0 l/m 5,1 km/h (1 Bft) 0,40 h 0,00 h 8,6 km/h (2 Bft)
03.05.2012 14:00 20,8 C 15,5 C 1,7 UV-I 3,8 C 56 % 77 % 92 % 1010,7 hPa 0,0 l/m 4,9 km/h (1 Bft) 0,80 h 0,00 h 10,0 km/h (2 Bft)
03.05.2012 15:00 21,3 C 16,2 C 1,4 UV-I 3,1 C 54 % 70 % 90 % 1010,3 hPa 0,0 l/m 5,7 km/h (1 Bft) 0,73 h 0,00 h 11,2 km/h (2 Bft)
03.05.2012 16:00 21,3 C 15,8 C 0,3 UV-I 1,2 C 53 % 71 % 35 % 1010,0 hPa 0,0 l/m 3,3 km/h (1 Bft) 0,00 h 0,00 h 5,4 km/h (1 Bft)
03.05.2012 17:00 21,0 C 15,8 C 0,3 UV-I 1,1 C 54 % 72 % 33 % 1009,2 hPa 0,0 l/m 1,2 km/h (1 Bft) 0,00 h 0,00 h 3,4 km/h (1 Bft)
03.05.2012 18:00 20,8 C 15,5 C 0,0 UV-I 0,2 C 54 % 73 % 7 % 1008,9 hPa 0,0 l/m 0,6 km/h (0 Bft) 0,00 h 0,00 h 2,3 km/h (1 Bft)
03.05.2012 19:00 20,5 C 14,8 C 0,0 UV-I 0,0 C 55 % 75 % 0 % 1008,8 hPa 0,0 l/m 0,5 km/h (0 Bft) 0,00 h 0,03 h 1,3 km/h (1 Bft)
03.05.2012 20:00 20,2 C 14,3 C 0,0 UV-I 0,0 C 56 % 79 % 0 % 1008,8 hPa 0,0 l/m 0,0 km/h (0 Bft) 0,00 h 0,00 h 0,0 km/h (0 Bft)
03.05.2012 21:00 20,1 C 13,9 C 0,0 UV-I 0,0 C 57 % 80 % 0 % 1008,7 hPa 0,0 l/m 0,1 km/h (0 Bft) 0,00 h 0,00 h 0,6 km/h (0 Bft)
03.05.2012 22:00 20,0 C 13,6 C 0,0 UV-I 0,0 C 57 % 82 % 0 % 1008,7 hPa 0,0 l/m 0,0 km/h (0 Bft) 0,00 h 0,03 h 0,0 km/h (0 Bft)
03.05.2012 23:00 19,9 C 13,3 C 0,0 UV-I 0,0 C 58 % 84 % 0 % 1008,5 hPa 0,0 l/m 0,0 km/h (0 Bft) 0,00 h 0,00 h 0,3 km/h (0 Bft)
04.05.2012 00:00 19,8 C 13,2 C 0,0 UV-I 0,0 C 58 % 84 % 0 % 1008,1 hPa 0,0 l/m 0,0 km/h (0 Bft) 0,00 h 0,00 h 0,3 km/h (0 Bft)
04.05.2012 01:00 19,7 C 12,9 C 0,0 UV-I 0,0 C 58 % 86 % 0 % 1007,6 hPa 0,0 l/m 0,2 km/h (0 Bft) 0,00 h 0,07 h 1,0 km/h (0 Bft)
04.05.2012 02:00 19,6 C 12,8 C 0,0 UV-I 0,0 C 58 % 85 % 0 % 1007,0 hPa 0,0 l/m 0,3 km/h (0 Bft) 0,00 h 0,00 h 1,9 km/h (1 Bft)
04.05.2012 03:00 19,6 C 12,5 C 0,0 UV-I 0,0 C 58 % 85 % 0 % 1006,3 hPa 0,0 l/m 0,2 km/h (0 Bft) 0,00 h 0,00 h 0,6 km/h (0 Bft)
04.05.2012 04:00 19,5 C 12,3 C 0,0 UV-I 0,0 C 58 % 85 % 0 % 1006,1 hPa 0,0 l/m 0,1 km/h (0 Bft) 0,00 h 0,00 h 0,6 km/h (0 Bft)
04.05.2012 05:00 19,4 C 12,1 C 0,0 UV-I 0,0 C 58 % 86 % 0 % 1005,7 hPa 0,0 l/m 0,1 km/h (0 Bft) 0,00 h 0,00 h 0,3 km/h (0 Bft)
04.05.2012 06:00 19,4 C 11,7 C 0,0 UV-I 0,0 C 59 % 87 % 0 % 1005,4 hPa 0,0 l/m 0,0 km/h (0 Bft) 0,00 h 0,00 h 0,0 km/h (0 Bft)
04.05.2012 07:00 19,4 C 11,7 C 0,0 UV-I 0,0 C 59 % 89 % 0 % 1005,3 hPa 0,0 l/m 0,0 km/h (0 Bft) 0,00 h 0,00 h 0,0 km/h (0 Bft)
04.05.2012 08:00 19,4 C 13,0 C 0,5 UV-I 4,0 C 59 % 88 % 60 % 1004,7 hPa 0,0 l/m 0,5 km/h (0 Bft) 0,53 h 0,00 h 3,2 km/h (1 Bft)
04.05.2012 09:00 19,4 C 15,5 C 2,2 UV-I 8,7 C 58 % 79 % 100 % 1004,5 hPa 0,0 l/m 1,8 km/h (1 Bft) 1,00 h 0,00 h 5,6 km/h (1 Bft)
04.05.2012 10:00 19,6 C 17,2 C 4,3 UV-I 8,2 C 57 % 70 % 100 % 1004,0 hPa 0,0 l/m 3,4 km/h (1 Bft) 1,00 h 0,00 h 8,6 km/h (2 Bft)
04.05.2012 11:00 19,9 C 18,5 C 3,7 UV-I 6,9 C 56 % 64 % 100 % 1003,7 hPa 0,0 l/m 4,6 km/h (1 Bft) 1,00 h 0,00 h 9,0 km/h (2 Bft)
04.05.2012 12:00 20,6 C 19,2 C 2,2 UV-I 5,4 C 55 % 62 % 100 % 1003,1 hPa 0,0 l/m 3,9 km/h (1 Bft) 1,00 h 0,00 h 9,2 km/h (2 Bft)
04.05.2012 13:00 21,2 C 19,2 C 1,8 UV-I 3,6 C 53 % 60 % 90 % 1003,1 hPa 0,0 l/m 6,3 km/h (2 Bft) 0,77 h 0,00 h 10,7 km/h (2 Bft)
04.05.2012 14:00 22,1 C 20,4 C 2,8 UV-I 5,8 C 51 % 58 % 100 % 1001,7 hPa 0,0 l/m 6,0 km/h (2 Bft) 1,00 h 0,00 h 10,8 km/h (2 Bft)
04.05.2012 15:00 23,7 C 21,0 C 3,1 UV-I 5,2 C 47 % 55 % 100 % 1001,5 hPa 0,0 l/m 6,9 km/h (2 Bft) 1,00 h 0,00 h 11,5 km/h (2 Bft)
04.05.2012 16:00 24,6 C 21,3 C 3,3 UV-I 4,8 C 44 % 52 % 100 % 1001,2 hPa 0,0 l/m 6,6 km/h (2 Bft) 1,00 h 0,00 h 11,3 km/h (2 Bft)
04.05.2012 17:00 25,1 C 21,1 C 2,5 UV-I 5,1 C 43 % 52 % 100 % 1001,0 hPa 0,0 l/m 7,1 km/h (2 Bft) 1,00 h 0,00 h 13,3 km/h (3 Bft)
04.05.2012 18:00 24,4 C 19,4 C 0,7 UV-I 1,5 C 44 % 56 % 43 % 1001,6 hPa 0,0 l/m 7,9 km/h (2 Bft) 0,20 h 0,00 h 14,7 km/h (3 Bft)
04.05.2012 19:00 23,3 C 17,6 C 0,1 UV-I 0,3 C 46 % 63 % 7 % 1002,0 hPa 0,0 l/m 7,7 km/h (2 Bft) 0,00 h 0,00 h 14,2 km/h (3 Bft)
04.05.2012 20:00 22,4 C 15,1 C 0,0 UV-I 0,0 C 48 % 71 % 1 % 1002,6 hPa 0,0 l/m 12,1 km/h (2 Bft) 0,00 h 0,00 h 20,5 km/h (4 Bft)
04.05.2012 21:00 21,7 C 12,9 C 0,0 UV-I 0,0 C 50 % 78 % 0 % 1003,3 hPa 0,0 l/m 11,3 km/h (2 Bft) 0,00 h 0,00 h 16,1 km/h (3 Bft)
04.05.2012 22:00 21,2 C 11,7 C 0,0 UV-I 0,0 C 52 % 81 % 0 % 1003,8 hPa 0,0 l/m 8,0 km/h (2 Bft) 0,00 h 0,00 h 11,5 km/h (2 Bft)
04.05.2012 23:00 20,8 C 10,9 C 0,0 UV-I 0,0 C 53 % 85 % 0 % 1004,1 hPa 0,0 l/m 8,3 km/h (2 Bft) 0,00 h 0,27 h 11,9 km/h (2 Bft)
05.05.2012 00:00 20,5 C 10,3 C 0,0 UV-I 0,0 C 53 % 87 % 0 % 1004,4 hPa 0,2 l/m 5,3 km/h (1 Bft) 0,00 h 0,67 h 9,3 km/h (2 Bft)
05.05.2012 01:00 20,2 C 9,5 C 0,0 UV-I 0,0 C 54 % 92 % 0 % 1003,9 hPa 2,1 l/m 10,8 km/h (2 Bft) 0,00 h 0,83 h 16,5 km/h (3 Bft)
05.05.2012 02:00 20,0 C 8,8 C 0,0 UV-I 0,0 C 54 % 94 % 0 % 1003,7 hPa 0,2 l/m 7,4 km/h (2 Bft) 0,00 h 0,00 h 10,1 km/h (2 Bft)
05.05.2012 03:00 19,8 C 8,8 C 0,0 UV-I 0,0 C 55 % 94 % 0 % 1003,8 hPa 0,0 l/m 7,3 km/h (2 Bft) 0,00 h 0,23 h 10,6 km/h (2 Bft)
05.05.2012 04:00 19,6 C 8,7 C 0,0 UV-I 0,0 C 55 % 93 % 0 % 1003,7 hPa 0,0 l/m 7,6 km/h (2 Bft) 0,00 h 0,00 h 11,2 km/h (2 Bft)
05.05.2012 05:00 19,5 C 8,7 C 0,0 UV-I 0,0 C 55 % 94 % 0 % 1003,6 hPa 0,1 l/m 6,9 km/h (2 Bft) 0,00 h 0,47 h 11,0 km/h (2 Bft)
05.05.2012 06:00 19,4 C 8,4 C 0,0 UV-I 0,0 C 55 % 94 % 0 % 1004,0 hPa 1,2 l/m 8,8 km/h (2 Bft) 0,00 h 1,00 h 13,7 km/h (3 Bft)
05.05.2012 07:00 19,2 C 8,0 C 0,0 UV-I 0,0 C 55 % 95 % 0 % 1004,2 hPa 1,6 l/m 8,6 km/h (2 Bft) 0,00 h 0,60 h 13,0 km/h (3 Bft)
05.05.2012 08:00 19,1 C 7,7 C 0,0 UV-I 0,0 C 55 % 96 % 0 % 1004,3 hPa 0,6 l/m 8,9 km/h (2 Bft) 0,00 h 0,00 h 14,7 km/h (3 Bft)
05.05.2012 09:00 19,1 C 8,0 C 0,0 UV-I 0,0 C 55 % 96 % 0 % 1004,6 hPa 0,2 l/m 9,1 km/h (2 Bft) 0,00 h 0,27 h 13,6 km/h (3 Bft)
05.05.2012 10:00 19,0 C 8,2 C 0,0 UV-I 0,0 C 55 % 96 % 0 % 1005,0 hPa 0,2 l/m 10,4 km/h (2 Bft) 0,00 h 0,63 h 15,6 km/h (3 Bft)
05.05.2012 11:00 19,0 C 8,3 C 0,0 UV-I 0,0 C 55 % 96 % 0 % 1005,5 hPa 0,7 l/m 9,3 km/h (2 Bft) 0,00 h 1,00 h 13,8 km/h (3 Bft)
05.05.2012 12:00 19,0 C 8,4 C 0,0 UV-I 0,0 C 55 % 96 % 0 % 1005,7 hPa 2,0 l/m 9,7 km/h (2 Bft) 0,00 h 0,73 h 15,5 km/h (3 Bft)
05.05.2012 13:00 19,0 C 8,6 C 0,1 UV-I 0,0 C 55 % 96 % 1 % 1006,0 hPa 1,7 l/m 9,3 km/h (2 Bft) 0,00 h 0,00 h 14,1 km/h (3 Bft)
05.05.2012 14:00 19,0 C 8,8 C 0,0 UV-I 0,0 C 55 % 96 % 0 % 1006,3 hPa 0,2 l/m 10,7 km/h (2 Bft) 0,00 h 0,37 h 15,9 km/h (3 Bft)
05.05.2012 15:00 19,0 C 8,8 C 0,2 UV-I 0,1 C 55 % 96 % 2 % 1006,2 hPa 0,0 l/m 12,4 km/h (3 Bft) 0,00 h 0,30 h 18,5 km/h (3 Bft)
05.05.2012 16:00 19,0 C 9,3 C 0,3 UV-I 0,5 C 55 % 94 % 15 % 1006,4 hPa 0,0 l/m 11,2 km/h (2 Bft) 0,00 h 0,00 h 17,4 km/h (3 Bft)
05.05.2012 17:00 19,0 C 9,3 C 0,0 UV-I 0,0 C 54 % 91 % 1 % 1006,6 hPa 0,0 l/m 11,4 km/h (2 Bft) 0,00 h 0,00 h 17,2 km/h (3 Bft)
05.05.2012 18:00 18,8 C 9,2 C 0,0 UV-I 0,0 C 54 % 88 % 0 % 1007,1 hPa 0,0 l/m 9,2 km/h (2 Bft) 0,00 h 0,00 h 14,7 km/h (3 Bft)
05.05.2012 19:00 18,7 C 9,3 C 0,0 UV-I 0,0 C 54 % 87 % 0 % 1007,4 hPa 0,0 l/m 7,7 km/h (2 Bft) 0,00 h 0,00 h 12,4 km/h (3 Bft)
05.05.2012 20:00 18,6 C 9,3 C 0,0 UV-I 0,0 C 54 % 87 % 0 % 1007,6 hPa 0,0 l/m 3,8 km/h (1 Bft) 0,00 h 0,07 h 6,4 km/h (2 Bft)
05.05.2012 21:00 18,6 C 8,9 C 0,0 UV-I 0,0 C 54 % 90 % 0 % 1007,9 hPa 0,0 l/m 5,1 km/h (1 Bft) 0,00 h 0,00 h 7,5 km/h (2 Bft)
05.05.2012 22:00 18,5 C 8,7 C 0,0 UV-I 0,0 C 54 % 92 % 0 % 1008,2 hPa 0,0 l/m 8,1 km/h (2 Bft) 0,00 h 0,00 h 11,7 km/h (2 Bft)
05.05.2012 23:00 18,4 C 8,4 C 0,0 UV-I 0,0 C 55 % 92 % 0 % 1008,4 hPa 0,0 l/m 7,1 km/h (2 Bft) 0,00 h 0,00 h 9,8 km/h (2 Bft)
06.05.2012 00:00 18,3 C 8,3 C 0,0 UV-I 0,0 C 55 % 91 % 0 % 1008,3 hPa 0,0 l/m 6,3 km/h (2 Bft) 0,00 h 0,00 h 9,6 km/h (2 Bft)
06.05.2012 01:00 18,3 C 8,2 C 0,0 UV-I 0,0 C 54 % 89 % 0 % 1008,5 hPa 0,0 l/m 5,1 km/h (1 Bft) 0,00 h 0,00 h 8,2 km/h (2 Bft)
06.05.2012 02:00 18,2 C 8,0 C 0,0 UV-I 0,0 C 53 % 87 % 0 % 1008,3 hPa 0,0 l/m 4,3 km/h (1 Bft) 0,00 h 0,00 h 8,1 km/h (2 Bft)
06.05.2012 03:00 18,1 C 7,7 C 0,0 UV-I 0,0 C 53 % 86 % 0 % 1008,5 hPa 0,0 l/m 3,9 km/h (1 Bft) 0,00 h 0,00 h 7,0 km/h (2 Bft)
06.05.2012 04:00 18,0 C 7,6 C 0,0 UV-I 0,0 C 52 % 86 % 0 % 1008,7 hPa 0,0 l/m 4,8 km/h (1 Bft) 0,00 h 0,00 h 8,4 km/h (2 Bft)
06.05.2012 05:00 18,0 C 7,5 C 0,0 UV-I 0,0 C 52 % 86 % 0 % 1008,3 hPa 0,0 l/m 4,4 km/h (1 Bft) 0,00 h 0,00 h 7,9 km/h (2 Bft)
06.05.2012 06:00 18,0 C 7,3 C 0,0 UV-I 0,0 C 52 % 86 % 0 % 1008,1 hPa 0,0 l/m 4,3 km/h (1 Bft) 0,00 h 0,00 h 6,8 km/h (2 Bft)
06.05.2012 07:00 17,9 C 7,4 C 0,0 UV-I 0,0 C 51 % 87 % 0 % 1008,5 hPa 0,0 l/m 4,5 km/h (1 Bft) 0,00 h 0,00 h 9,5 km/h (2 Bft)
06.05.2012 08:00 17,9 C 7,3 C 0,0 UV-I 0,1 C 51 % 87 % 2 % 1008,8 hPa 0,0 l/m 7,3 km/h (2 Bft) 0,00 h 0,00 h 10,9 km/h (2 Bft)
06.05.2012 09:00 17,9 C 7,5 C 0,0 UV-I 0,1 C 52 % 88 % 4 % 1009,2 hPa 0,0 l/m 4,2 km/h (1 Bft) 0,00 h 0,00 h 8,0 km/h (2 Bft)
06.05.2012 10:00 18,0 C 7,8 C 0,0 UV-I 0,8 C 52 % 87 % 23 % 1009,5 hPa 0,0 l/m 6,7 km/h (2 Bft) 0,00 h 0,13 h 11,4 km/h (2 Bft)
06.05.2012 11:00 18,1 C 8,4 C 0,4 UV-I 1,1 C 54 % 88 % 31 % 1009,6 hPa 0,1 l/m 9,0 km/h (2 Bft) 0,00 h 0,67 h 13,6 km/h (3 Bft)
06.05.2012 12:00 18,3 C 9,2 C 0,1 UV-I 1,4 C 53 % 86 % 39 % 1009,9 hPa 0,0 l/m 4,1 km/h (1 Bft) 0,00 h 0,30 h 7,1 km/h (2 Bft)
06.05.2012 13:00 18,3 C 9,5 C 0,2 UV-I 0,8 C 53 % 87 % 24 % 1010,0 hPa 0,1 l/m 5,5 km/h (1 Bft) 0,00 h 0,47 h 9,0 km/h (2 Bft)
06.05.2012 14:00 18,4 C 9,5 C 0,1 UV-I 0,9 C 53 % 86 % 27 % 1010,1 hPa 0,0 l/m 7,5 km/h (2 Bft) 0,00 h 0,17 h 12,2 km/h (2 Bft)
06.05.2012 15:00 18,4 C 9,6 C 0,2 UV-I 1,0 C 54 % 85 % 29 % 1010,3 hPa 0,1 l/m 10,7 km/h (2 Bft) 0,00 h 0,57 h 15,9 km/h (3 Bft)
06.05.2012 16:00 18,4 C 9,2 C 0,0 UV-I 0,1 C 55 % 88 % 2 % 1010,7 hPa 0,1 l/m 10,6 km/h (2 Bft) 0,00 h 0,70 h 16,3 km/h (3 Bft)
06.05.2012 17:00 18,3 C 8,8 C 0,0 UV-I 0,0 C 55 % 91 % 0 % 1011,0 hPa 0,2 l/m 11,8 km/h (2 Bft) 0,00 h 0,70 h 17,1 km/h (3 Bft)
06.05.2012 18:00 18,1 C 8,4 C 0,0 UV-I 0,0 C 56 % 93 % 0 % 1011,7 hPa 0,0 l/m 12,4 km/h (3 Bft) 0,00 h 0,40 h 16,3 km/h (3 Bft)
06.05.2012 19:00 18,0 C 8,1 C 0,0 UV-I 0,0 C 56 % 93 % 0 % 1012,0 hPa 0,0 l/m 11,3 km/h (2 Bft) 0,00 h 0,13 h 16,3 km/h (3 Bft)
06.05.2012 20:00 17,9 C 7,9 C 0,0 UV-I 0,0 C 56 % 94 % 0 % 1012,7 hPa 0,0 l/m 8,6 km/h (2 Bft) 0,00 h 0,00 h 12,7 km/h (3 Bft)
06.05.2012 21:00 17,8 C 7,8 C 0,0 UV-I 0,0 C 56 % 94 % 0 % 1013,5 hPa 0,0 l/m 7,0 km/h (2 Bft) 0,00 h 0,00 h 10,8 km/h (2 Bft)
06.05.2012 22:00 17,7 C 7,6 C 0,0 UV-I 0,0 C 56 % 94 % 0 % 1014,1 hPa 0,0 l/m 6,6 km/h (2 Bft) 0,00 h 0,00 h 9,4 km/h (2 Bft)
06.05.2012 23:00 17,6 C 7,5 C 0,0 UV-I 0,0 C 55 % 94 % 0 % 1014,7 hPa 0,0 l/m 6,1 km/h (2 Bft) 0,00 h 0,00 h 9,8 km/h (2 Bft)
Min-Datum _ 06.05.12 06.05.12 30.04.12 30.04.12 04.05.12 30.04.12 30.04.12 04.05.12 - 30.04.12 - - 30.04.12
_ Min-Zeit 22:56 08:20 00:00 00:00 16:54 14:36 00:00 16:20 - 00:00 - - 00:00
Minimum _ 17,6 C 7,2 C 0,0 UV-I 0,0 C 43 % 39 % 0 % 1000,1 hPa - 0,0 km/h (0 Bft) - - 0,0 km/h (0 Bft)
Max-Datum _ 04.05.12 30.04.12 30.04.12 30.04.12 02.05.12 02.05.12 30.04.12 01.05.12 01.05.12 02.05.12 30.04.12 01.05.12 04.05.12
_ Max-Zeit 17:28 14:52 10:34 09:54 21:26 14:56 08:56 23:00 06:26 10:48 08:54 05:08 20:20
Maximum _ 25,2 C 23,2 C 5,0 UV-I 10,8 C 66 % 96 % 100 % 1018,9 hPa 3,8 l/m 16,1 km/h
W (3 Bft)
0,03 h 0,03 h 33,7 km/h
NW (5 Bft)
Durchschnitt _ 20,3 C 13,7 C 0,5 UV-I 1,2 C 56 % 82 % 23 % 1010,6 hPa #26,3 l/m 4,8 km/h (1 Bft) #27:46 h #16:42 h 8,0 km/h (2 Bft)
© 2012 W. Hausmann